sensor_id;sensor_type;location;lat;lon;timestamp;pressure;altitude;pressure_sealevel;temperature;humidity
56038;BME280;41907;47.848;9.000;2023-04-27T00:00:55;95795.69;;;9.08;93.10
56038;BME280;41907;47.848;9.000;2023-04-27T00:03:20;95794.03;;;9.12;93.44
56038;BME280;41907;47.848;9.000;2023-04-27T00:05:46;95797.19;;;9.14;95.15
56038;BME280;41907;47.848;9.000;2023-04-27T00:08:11;95794.91;;;9.07;95.47
56038;BME280;41907;47.848;9.000;2023-04-27T00:10:37;95783.28;;;9.03;94.01
56038;BME280;41907;47.848;9.000;2023-04-27T00:13:02;95788.00;;;9.06;93.05
56038;BME280;41907;47.848;9.000;2023-04-27T00:15:27;95791.44;;;9.07;96.25
56038;BME280;41907;47.848;9.000;2023-04-27T00:17:53;95788.00;;;9.06;97.66
56038;BME280;41907;47.848;9.000;2023-04-27T00:20:18;95789.91;;;9.06;97.31
56038;BME280;41907;47.848;9.000;2023-04-27T00:22:45;95786.91;;;9.07;97.92
56038;BME280;41907;47.848;9.000;2023-04-27T00:25:10;95788.72;;;9.12;96.77
56038;BME280;41907;47.848;9.000;2023-04-27T00:27:35;95786.34;;;9.10;95.37
56038;BME280;41907;47.848;9.000;2023-04-27T00:30:01;95790.56;;;9.11;96.21
56038;BME280;41907;47.848;9.000;2023-04-27T00:32:26;95783.88;;;9.14;96.43
56038;BME280;41907;47.848;9.000;2023-04-27T00:34:51;95797.97;;;9.14;96.10
56038;BME280;41907;47.848;9.000;2023-04-27T00:37:17;95796.09;;;9.15;96.46
56038;BME280;41907;47.848;9.000;2023-04-27T00:39:42;95794.53;;;9.14;96.46
56038;BME280;41907;47.848;9.000;2023-04-27T00:42:08;95785.47;;;9.15;97.04
56038;BME280;41907;47.848;9.000;2023-04-27T00:44:41;95778.84;;;9.12;97.49
56038;BME280;41907;47.848;9.000;2023-04-27T00:47:06;95786.63;;;9.09;98.33
56038;BME280;41907;47.848;9.000;2023-04-27T00:49:31;95778.06;;;8.98;95.14
56038;BME280;41907;47.848;9.000;2023-04-27T00:51:57;95775.22;;;8.94;96.02
56038;BME280;41907;47.848;9.000;2023-04-27T00:54:22;95772.94;;;8.88;97.11
56038;BME280;41907;47.848;9.000;2023-04-27T00:56:51;95772.63;;;8.89;97.95
56038;BME280;41907;47.848;9.000;2023-04-27T00:59:17;95770.16;;;8.79;100.00
56038;BME280;41907;47.848;9.000;2023-04-27T01:01:43;95775.66;;;8.55;100.00
56038;BME280;41907;47.848;9.000;2023-04-27T01:04:09;95764.81;;;8.52;100.00
56038;BME280;41907;47.848;9.000;2023-04-27T01:06:34;95774.38;;;8.39;98.58
56038;BME280;41907;47.848;9.000;2023-04-27T01:08:59;95769.13;;;8.34;96.75
56038;BME280;41907;47.848;9.000;2023-04-27T01:11:24;95765.47;;;8.30;95.47
56038;BME280;41907;47.848;9.000;2023-04-27T01:13:50;95770.94;;;8.20;96.27
56038;BME280;41907;47.848;9.000;2023-04-27T01:16:18;95768.56;;;8.18;96.58
56038;BME280;41907;47.848;9.000;2023-04-27T01:18:43;95760.25;;;8.06;96.47
56038;BME280;41907;47.848;9.000;2023-04-27T01:21:09;95765.78;;;8.10;96.52
56038;BME280;41907;47.848;9.000;2023-04-27T01:23:34;95776.25;;;8.20;96.35
56038;BME280;41907;47.848;9.000;2023-04-27T01:26:00;95777.22;;;8.24;96.47
56038;BME280;41907;47.848;9.000;2023-04-27T01:28:25;95779.19;;;8.37;96.66
56038;BME280;41907;47.848;9.000;2023-04-27T01:30:51;95785.59;;;8.50;95.75
56038;BME280;41907;47.848;9.000;2023-04-27T01:33:16;95779.50;;;8.63;94.03
56038;BME280;41907;47.848;9.000;2023-04-27T01:35:41;95785.84;;;8.67;92.18
56038;BME280;41907;47.848;9.000;2023-04-27T01:38:06;95785.94;;;8.76;92.54
56038;BME280;41907;47.848;9.000;2023-04-27T01:40:31;95787.19;;;8.78;95.31
56038;BME280;41907;47.848;9.000;2023-04-27T01:42:57;95786.41;;;8.78;94.69
56038;BME280;41907;47.848;9.000;2023-04-27T01:45:22;95782.97;;;8.64;94.00
56038;BME280;41907;47.848;9.000;2023-04-27T01:47:49;95783.75;;;8.64;93.96
56038;BME280;41907;47.848;9.000;2023-04-27T01:50:14;95778.81;;;8.71;94.41
56038;BME280;41907;47.848;9.000;2023-04-27T01:52:40;95788.59;;;8.76;94.01
56038;BME280;41907;47.848;9.000;2023-04-27T01:55:05;95786.22;;;8.74;94.16
56038;BME280;41907;47.848;9.000;2023-04-27T01:57:31;95786.50;;;8.73;93.61
56038;BME280;41907;47.848;9.000;2023-04-27T01:59:56;95785.34;;;8.79;93.17
56038;BME280;41907;47.848;9.000;2023-04-27T02:02:21;95785.03;;;8.80;92.01
56038;BME280;41907;47.848;9.000;2023-04-27T02:04:46;95783.00;;;8.77;92.74
56038;BME280;41907;47.848;9.000;2023-04-27T02:07:12;95780.34;;;8.77;92.92
56038;BME280;41907;47.848;9.000;2023-04-27T02:09:37;95791.25;;;8.76;94.97
56038;BME280;41907;47.848;9.000;2023-04-27T02:12:02;95789.69;;;8.75;95.51
56038;BME280;41907;47.848;9.000;2023-04-27T02:14:27;95792.28;;;8.47;95.72
56038;BME280;41907;47.848;9.000;2023-04-27T02:16:53;95786.19;;;8.47;95.62
56038;BME280;41907;47.848;9.000;2023-04-27T02:19:18;95792.28;;;8.47;95.29
56038;BME280;41907;47.848;9.000;2023-04-27T02:21:43;95787.06;;;8.42;96.03
56038;BME280;41907;47.848;9.000;2023-04-27T02:24:08;95785.91;;;8.48;96.58
56038;BME280;41907;47.848;9.000;2023-04-27T02:26:34;95781.38;;;8.49;96.13
56038;BME280;41907;47.848;9.000;2023-04-27T02:28:59;95785.09;;;8.48;95.88
56038;BME280;41907;47.848;9.000;2023-04-27T02:31:24;95785.09;;;8.48;95.47
56038;BME280;41907;47.848;9.000;2023-04-27T02:33:50;95782.53;;;8.43;94.53
56038;BME280;41907;47.848;9.000;2023-04-27T02:36:15;95780.81;;;8.33;94.88
56038;BME280;41907;47.848;9.000;2023-04-27T02:38:40;95778.31;;;8.23;97.05
56038;BME280;41907;47.848;9.000;2023-04-27T02:41:06;95781.13;;;8.13;97.04
56038;BME280;41907;47.848;9.000;2023-04-27T02:43:31;95773.66;;;8.15;97.68
56038;BME280;41907;47.848;9.000;2023-04-27T02:45:56;95786.75;;;8.11;98.01
56038;BME280;41907;47.848;9.000;2023-04-27T02:48:21;95776.59;;;8.13;98.41
56038;BME280;41907;47.848;9.000;2023-04-27T02:50:47;95779.69;;;8.20;97.49
56038;BME280;41907;47.848;9.000;2023-04-27T02:53:12;95784.91;;;8.26;96.44
56038;BME280;41907;47.848;9.000;2023-04-27T02:55:37;95781.84;;;8.18;97.01
56038;BME280;41907;47.848;9.000;2023-04-27T02:58:03;95777.50;;;8.22;97.78
56038;BME280;41907;47.848;9.000;2023-04-27T03:00:28;95781.69;;;8.29;97.84
56038;BME280;41907;47.848;9.000;2023-04-27T03:02:54;95786.34;;;8.37;97.25
56038;BME280;41907;47.848;9.000;2023-04-27T03:05:20;95797.38;;;8.44;97.48
56038;BME280;41907;47.848;9.000;2023-04-27T03:07:45;95791.78;;;8.45;96.83
56038;BME280;41907;47.848;9.000;2023-04-27T03:10:10;95799.72;;;8.32;96.90
56038;BME280;41907;47.848;9.000;2023-04-27T03:12:35;95795.25;;;8.27;97.29
56038;BME280;41907;47.848;9.000;2023-04-27T03:15:01;95788.34;;;8.26;97.17
56038;BME280;41907;47.848;9.000;2023-04-27T03:17:26;95798.56;;;8.19;98.95
56038;BME280;41907;47.848;9.000;2023-04-27T03:19:51;95797.94;;;8.08;99.76
56038;BME280;41907;47.848;9.000;2023-04-27T03:22:16;95800.31;;;8.10;100.00
56038;BME280;41907;47.848;9.000;2023-04-27T03:24:42;95803.22;;;8.27;100.00
56038;BME280;41907;47.848;9.000;2023-04-27T03:27:07;95799.50;;;8.28;98.63
56038;BME280;41907;47.848;9.000;2023-04-27T03:29:32;95799.94;;;8.35;98.78
56038;BME280;41907;47.848;9.000;2023-04-27T03:31:57;95805.16;;;8.40;98.45
56038;BME280;41907;47.848;9.000;2023-04-27T03:34:23;95804.28;;;8.45;99.93
56038;BME280;41907;47.848;9.000;2023-04-27T03:36:48;95804.78;;;8.47;99.43
56038;BME280;41907;47.848;9.000;2023-04-27T03:39:13;95801.25;;;8.51;100.00
56038;BME280;41907;47.848;9.000;2023-04-27T03:41:38;95801.16;;;8.56;100.00
56038;BME280;41907;47.848;9.000;2023-04-27T03:44:04;95804.91;;;8.55;98.91
56038;BME280;41907;47.848;9.000;2023-04-27T03:46:29;95804.81;;;8.61;99.90
56038;BME280;41907;47.848;9.000;2023-04-27T03:48:55;95810.91;;;8.61;99.86
56038;BME280;41907;47.848;9.000;2023-04-27T03:51:20;95810.41;;;8.59;100.00
56038;BME280;41907;47.848;9.000;2023-04-27T03:53:45;95809.94;;;8.57;99.77
56038;BME280;41907;47.848;9.000;2023-04-27T03:56:10;95807.00;;;8.58;98.87
56038;BME280;41907;47.848;9.000;2023-04-27T03:58:36;95809.94;;;8.57;98.60
56038;BME280;41907;47.848;9.000;2023-04-27T04:01:01;95812.94;;;8.50;98.10
56038;BME280;41907;47.848;9.000;2023-04-27T04:03:26;95813.47;;;8.52;99.76
56038;BME280;41907;47.848;9.000;2023-04-27T04:05:51;95815.53;;;8.55;100.00
56038;BME280;41907;47.848;9.000;2023-04-27T04:08:16;95815.13;;;8.48;100.00
56038;BME280;41907;47.848;9.000;2023-04-27T04:10:42;95804.00;;;8.46;100.00
56038;BME280;41907;47.848;9.000;2023-04-27T04:13:07;95811.69;;;8.48;100.00
56038;BME280;41907;47.848;9.000;2023-04-27T04:15:32;95813.84;;;8.46;100.00
56038;BME280;41907;47.848;9.000;2023-04-27T04:17:57;95813.91;;;8.41;100.00
56038;BME280;41907;47.848;9.000;2023-04-27T04:20:23;95808.72;;;8.31;100.00
56038;BME280;41907;47.848;9.000;2023-04-27T04:22:48;95814.06;;;8.12;100.00
56038;BME280;41907;47.848;9.000;2023-04-27T04:25:13;95814.25;;;8.02;100.00
56038;BME280;41907;47.848;9.000;2023-04-27T04:27:39;95824.38;;;8.00;100.00
56038;BME280;41907;47.848;9.000;2023-04-27T04:30:05;95820.56;;;8.06;100.00
56038;BME280;41907;47.848;9.000;2023-04-27T04:32:31;95818.91;;;8.10;100.00
56038;BME280;41907;47.848;9.000;2023-04-27T04:34:57;95826.22;;;8.18;100.00
56038;BME280;41907;47.848;9.000;2023-04-27T04:37:23;95825.94;;;8.19;100.00
56038;BME280;41907;47.848;9.000;2023-04-27T04:39:48;95827.06;;;8.13;100.00
56038;BME280;41907;47.848;9.000;2023-04-27T04:42:13;95825.56;;;8.26;100.00
56038;BME280;41907;47.848;9.000;2023-04-27T04:44:38;95824.88;;;8.20;100.00
56038;BME280;41907;47.848;9.000;2023-04-27T04:47:04;95823.16;;;8.11;100.00
56038;BME280;41907;47.848;9.000;2023-04-27T04:49:30;95825.81;;;8.11;100.00
56038;BME280;41907;47.848;9.000;2023-04-27T04:51:55;95835.19;;;8.03;100.00
56038;BME280;41907;47.848;9.000;2023-04-27T04:54:20;95823.22;;;8.06;100.00
56038;BME280;41907;47.848;9.000;2023-04-27T04:56:46;95819.06;;;8.00;100.00
56038;BME280;41907;47.848;9.000;2023-04-27T04:59:11;95814.72;;;8.04;100.00
56038;BME280;41907;47.848;9.000;2023-04-27T05:01:36;95831.19;;;8.06;100.00
56038;BME280;41907;47.848;9.000;2023-04-27T05:04:01;95820.50;;;8.11;100.00
56038;BME280;41907;47.848;9.000;2023-04-27T05:06:27;95819.09;;;8.13;100.00
56038;BME280;41907;47.848;9.000;2023-04-27T05:08:52;95827.44;;;8.26;100.00
56038;BME280;41907;47.848;9.000;2023-04-27T05:11:17;95828.31;;;8.40;100.00
56038;BME280;41907;47.848;9.000;2023-04-27T05:13:42;95826.38;;;8.59;100.00
56038;BME280;41907;47.848;9.000;2023-04-27T05:16:08;95830.06;;;8.77;100.00
56038;BME280;41907;47.848;9.000;2023-04-27T05:18:33;95821.31;;;8.90;98.71
56038;BME280;41907;47.848;9.000;2023-04-27T05:20:58;95823.34;;;8.79;99.37
56038;BME280;41907;47.848;9.000;2023-04-27T05:23:24;95820.25;;;9.05;98.83
56038;BME280;41907;47.848;9.000;2023-04-27T05:25:49;95828.00;;;9.56;96.13
56038;BME280;41907;47.848;9.000;2023-04-27T05:28:14;95827.88;;;9.75;94.87
56038;BME280;41907;47.848;9.000;2023-04-27T05:30:40;95833.19;;;9.75;93.17
56038;BME280;41907;47.848;9.000;2023-04-27T05:33:05;95834.75;;;10.12;92.52
56038;BME280;41907;47.848;9.000;2023-04-27T05:35:31;95829.06;;;10.04;91.79
56038;BME280;41907;47.848;9.000;2023-04-27T05:37:56;95833.09;;;10.16;91.61
56038;BME280;41907;47.848;9.000;2023-04-27T05:40:21;95830.28;;;10.57;90.57
56038;BME280;41907;47.848;9.000;2023-04-27T05:42:47;95825.19;;;10.77;89.02
56038;BME280;41907;47.848;9.000;2023-04-27T05:45:12;95823.00;;;10.79;87.86
56038;BME280;41907;47.848;9.000;2023-04-27T05:47:37;95824.28;;;11.13;86.62
56038;BME280;41907;47.848;9.000;2023-04-27T05:50:02;95822.34;;;11.44;83.55
56038;BME280;41907;47.848;9.000;2023-04-27T05:52:28;95821.84;;;12.08;79.59
56038;BME280;41907;47.848;9.000;2023-04-27T05:54:55;95825.88;;;12.57;74.97
56038;BME280;41907;47.848;9.000;2023-04-27T05:57:20;95830.13;;;12.66;72.59
56038;BME280;41907;47.848;9.000;2023-04-27T05:59:46;95835.66;;;13.84;66.47
56038;BME280;41907;47.848;9.000;2023-04-27T06:02:11;95842.59;;;13.26;67.38
56038;BME280;41907;47.848;9.000;2023-04-27T06:04:36;95845.19;;;12.88;70.94
56038;BME280;41907;47.848;9.000;2023-04-27T06:07:08;95849.97;;;12.57;70.94
56038;BME280;41907;47.848;9.000;2023-04-27T06:09:34;95850.16;;;12.35;71.64
56038;BME280;41907;47.848;9.000;2023-04-27T06:11:59;95852.66;;;12.31;72.50
56038;BME280;41907;47.848;9.000;2023-04-27T06:14:25;95854.06;;;12.20;74.84
56038;BME280;41907;47.848;9.000;2023-04-27T06:16:51;95858.50;;;12.16;74.91
56038;BME280;41907;47.848;9.000;2023-04-27T06:19:16;95854.41;;;12.36;74.28
56038;BME280;41907;47.848;9.000;2023-04-27T06:21:41;95855.50;;;12.35;72.06
56038;BME280;41907;47.848;9.000;2023-04-27T06:24:06;95858.31;;;12.12;73.43
56038;BME280;41907;47.848;9.000;2023-04-27T06:26:32;95860.38;;;12.07;73.86
56038;BME280;41907;47.848;9.000;2023-04-27T06:28:57;95857.41;;;12.17;73.07
56038;BME280;41907;47.848;9.000;2023-04-27T06:31:23;95853.28;;;12.11;73.32
56038;BME280;41907;47.848;9.000;2023-04-27T06:33:48;95862.69;;;11.91;74.64
56038;BME280;41907;47.848;9.000;2023-04-27T06:36:13;95856.13;;;12.14;73.69
56038;BME280;41907;47.848;9.000;2023-04-27T06:38:39;95858.63;;;12.02;73.85
56038;BME280;41907;47.848;9.000;2023-04-27T06:41:04;95858.94;;;12.09;73.96
56038;BME280;41907;47.848;9.000;2023-04-27T06:43:29;95859.59;;;12.15;72.50
56038;BME280;41907;47.848;9.000;2023-04-27T06:45:55;95868.69;;;12.05;73.60
56038;BME280;41907;47.848;9.000;2023-04-27T06:48:20;95869.50;;;12.14;74.08
56038;BME280;41907;47.848;9.000;2023-04-27T06:50:45;95865.06;;;12.10;73.69
56038;BME280;41907;47.848;9.000;2023-04-27T06:53:11;95876.88;;;12.17;75.78
56038;BME280;41907;47.848;9.000;2023-04-27T06:55:37;95877.38;;;12.45;75.35
56038;BME280;41907;47.848;9.000;2023-04-27T06:58:02;95875.47;;;12.46;71.34
56038;BME280;41907;47.848;9.000;2023-04-27T07:00:27;95873.25;;;12.48;70.92
56038;BME280;41907;47.848;9.000;2023-04-27T07:02:53;95878.47;;;12.53;73.72
56038;BME280;41907;47.848;9.000;2023-04-27T07:05:18;95881.41;;;12.77;72.31
56038;BME280;41907;47.848;9.000;2023-04-27T07:07:43;95882.34;;;12.98;71.45
56038;BME280;41907;47.848;9.000;2023-04-27T07:10:08;95878.34;;;13.13;69.21
56038;BME280;41907;47.848;9.000;2023-04-27T07:12:34;95875.84;;;13.08;68.47
56038;BME280;41907;47.848;9.000;2023-04-27T07:14:59;95885.53;;;14.27;66.95
56038;BME280;41907;47.848;9.000;2023-04-27T07:17:27;95878.16;;;14.44;66.00
56038;BME280;41907;47.848;9.000;2023-04-27T07:19:52;95890.16;;;14.47;65.94
56038;BME280;41907;47.848;9.000;2023-04-27T07:22:17;95881.50;;;14.62;64.13
56038;BME280;41907;47.848;9.000;2023-04-27T07:24:44;95883.75;;;14.39;63.62
56038;BME280;41907;47.848;9.000;2023-04-27T07:27:09;95880.06;;;14.23;65.15
56038;BME280;41907;47.848;9.000;2023-04-27T07:29:34;95887.00;;;14.24;63.86
56038;BME280;41907;47.848;9.000;2023-04-27T07:32:03;95885.00;;;14.12;64.35
56038;BME280;41907;47.848;9.000;2023-04-27T07:34:29;95886.75;;;14.59;63.36
56038;BME280;41907;47.848;9.000;2023-04-27T07:36:55;95881.59;;;14.86;61.57
56038;BME280;41907;47.848;9.000;2023-04-27T07:39:21;95883.72;;;14.81;63.21
56038;BME280;41907;47.848;9.000;2023-04-27T07:41:46;95885.88;;;14.46;61.65
56038;BME280;41907;47.848;9.000;2023-04-27T07:44:12;95891.03;;;13.80;67.15
56038;BME280;41907;47.848;9.000;2023-04-27T07:46:37;95895.94;;;14.91;61.78
56038;BME280;41907;47.848;9.000;2023-04-27T07:49:02;95883.25;;;14.79;63.61
56038;BME280;41907;47.848;9.000;2023-04-27T07:51:28;95880.88;;;15.10;65.87
56038;BME280;41907;47.848;9.000;2023-04-27T07:53:53;95888.66;;;14.91;62.04
56038;BME280;41907;47.848;9.000;2023-04-27T07:56:19;95874.66;;;14.85;63.26
56038;BME280;41907;47.848;9.000;2023-04-27T07:58:44;95885.41;;;14.85;63.01
56038;BME280;41907;47.848;9.000;2023-04-27T08:01:10;95878.78;;;14.83;63.41
56038;BME280;41907;47.848;9.000;2023-04-27T08:03:35;95876.50;;;14.10;64.77
56038;BME280;41907;47.848;9.000;2023-04-27T08:06:00;95888.41;;;14.22;64.78
56038;BME280;41907;47.848;9.000;2023-04-27T08:08:26;95887.72;;;15.65;60.02
56038;BME280;41907;47.848;9.000;2023-04-27T08:10:52;95883.69;;;15.83;59.81
56038;BME280;41907;47.848;9.000;2023-04-27T08:13:17;95884.13;;;15.73;59.26
56038;BME280;41907;47.848;9.000;2023-04-27T08:15:43;95889.56;;;16.78;54.88
56038;BME280;41907;47.848;9.000;2023-04-27T08:18:08;95887.56;;;16.74;53.74
56038;BME280;41907;47.848;9.000;2023-04-27T08:20:33;95886.25;;;16.68;55.34
56038;BME280;41907;47.848;9.000;2023-04-27T08:22:58;95883.63;;;17.00;53.10
56038;BME280;41907;47.848;9.000;2023-04-27T08:25:23;95888.72;;;16.49;56.17
56038;BME280;41907;47.848;9.000;2023-04-27T08:27:49;95891.84;;;16.11;56.69
56038;BME280;41907;47.848;9.000;2023-04-27T08:30:14;95884.47;;;16.48;55.81
56038;BME280;41907;47.848;9.000;2023-04-27T08:32:39;95884.41;;;17.00;55.33
56038;BME280;41907;47.848;9.000;2023-04-27T08:35:05;95889.00;;;17.59;53.40
56038;BME280;41907;47.848;9.000;2023-04-27T08:37:30;95890.31;;;17.97;52.38
56038;BME280;41907;47.848;9.000;2023-04-27T08:39:55;95877.09;;;18.27;50.87
56038;BME280;41907;47.848;9.000;2023-04-27T08:42:21;95888.28;;;17.46;51.62
56038;BME280;41907;47.848;9.000;2023-04-27T08:44:46;95887.13;;;15.96;56.44
56038;BME280;41907;47.848;9.000;2023-04-27T08:47:11;95880.50;;;16.98;52.96
56038;BME280;41907;47.848;9.000;2023-04-27T08:49:37;95880.22;;;17.78;54.53
56038;BME280;41907;47.848;9.000;2023-04-27T08:52:02;95882.03;;;18.98;49.29
56038;BME280;41907;47.848;9.000;2023-04-27T08:54:28;95876.63;;;19.59;47.17
56038;BME280;41907;47.848;9.000;2023-04-27T08:56:53;95877.88;;;19.65;46.55
56038;BME280;41907;47.848;9.000;2023-04-27T08:59:18;95876.22;;;20.10;46.34
56038;BME280;41907;47.848;9.000;2023-04-27T09:01:44;95877.28;;;20.55;44.37
56038;BME280;41907;47.848;9.000;2023-04-27T09:04:10;95886.00;;;21.38;41.65
56038;BME280;41907;47.848;9.000;2023-04-27T09:06:36;95879.06;;;21.44;43.18
56038;BME280;41907;47.848;9.000;2023-04-27T09:09:02;95877.59;;;21.53;40.08
56038;BME280;41907;47.848;9.000;2023-04-27T09:11:28;95877.78;;;21.31;42.21
56038;BME280;41907;47.848;9.000;2023-04-27T09:13:54;95876.66;;;21.32;42.04
56038;BME280;41907;47.848;9.000;2023-04-27T09:16:22;95880.31;;;21.53;39.44
56038;BME280;41907;47.848;9.000;2023-04-27T09:18:48;95878.06;;;20.89;39.63
56038;BME280;41907;47.848;9.000;2023-04-27T09:23:48;95870.88;;;20.40;42.05
56038;BME280;41907;47.848;9.000;2023-04-27T09:26:18;95879.19;;;19.75;43.92
56038;BME280;41907;47.848;9.000;2023-04-27T09:28:46;95878.41;;;19.10;43.84
56038;BME280;41907;47.848;9.000;2023-04-27T09:31:12;95880.31;;;18.51;46.78
56038;BME280;41907;47.848;9.000;2023-04-27T09:33:37;95866.19;;;18.39;48.72
56038;BME280;41907;47.848;9.000;2023-04-27T09:36:03;95877.66;;;18.71;47.43
56038;BME280;41907;47.848;9.000;2023-04-27T09:38:29;95872.34;;;18.20;46.27
56038;BME280;41907;47.848;9.000;2023-04-27T09:40:55;95872.28;;;18.36;45.67
56038;BME280;41907;47.848;9.000;2023-04-27T09:43:20;95865.97;;;18.12;45.34
56038;BME280;41907;47.848;9.000;2023-04-27T09:45:47;95868.31;;;17.79;46.18
56038;BME280;41907;47.848;9.000;2023-04-27T09:48:12;95865.56;;;17.95;44.97
56038;BME280;41907;47.848;9.000;2023-04-27T09:50:39;95867.97;;;18.89;45.79
56038;BME280;41907;47.848;9.000;2023-04-27T09:53:05;95864.13;;;19.09;44.72
56038;BME280;41907;47.848;9.000;2023-04-27T09:55:31;95867.59;;;19.52;43.68
56038;BME280;41907;47.848;9.000;2023-04-27T10:07:57;95856.41;;;17.64;46.80
56038;BME280;41907;47.848;9.000;2023-04-27T10:10:22;95858.38;;;17.36;48.43
56038;BME280;41907;47.848;9.000;2023-04-27T10:12:54;95849.50;;;17.51;49.19
56038;BME280;41907;47.848;9.000;2023-04-27T10:15:24;95853.47;;;16.66;52.17
56038;BME280;41907;47.848;9.000;2023-04-27T10:17:50;95851.59;;;16.83;53.41
56038;BME280;41907;47.848;9.000;2023-04-27T10:20:27;95852.94;;;17.04;53.01
56038;BME280;41907;47.848;9.000;2023-04-27T10:22:52;95848.94;;;16.70;51.29
56038;BME280;41907;47.848;9.000;2023-04-27T10:25:18;95849.06;;;17.49;52.41
56038;BME280;41907;47.848;9.000;2023-04-27T10:27:49;95845.31;;;17.85;51.20
56038;BME280;41907;47.848;9.000;2023-04-27T10:30:16;95850.72;;;18.74;48.47
56038;BME280;41907;47.848;9.000;2023-04-27T10:32:54;95853.28;;;18.32;47.54
56038;BME280;41907;47.848;9.000;2023-04-27T10:35:20;95856.00;;;17.03;51.36
56038;BME280;41907;47.848;9.000;2023-04-27T10:37:46;95852.34;;;17.11;51.71
56038;BME280;41907;47.848;9.000;2023-04-27T10:40:12;95851.53;;;16.79;54.28
56038;BME280;41907;47.848;9.000;2023-04-27T10:42:38;95846.72;;;17.47;51.18
56038;BME280;41907;47.848;9.000;2023-04-27T10:45:04;95841.34;;;18.14;49.75
56038;BME280;41907;47.848;9.000;2023-04-27T10:47:37;95851.84;;;17.53;50.85
56038;BME280;41907;47.848;9.000;2023-04-27T10:50:03;95842.81;;;17.92;50.99
56038;BME280;41907;47.848;9.000;2023-04-27T10:52:28;95844.22;;;18.05;50.42
56038;BME280;41907;47.848;9.000;2023-04-27T10:54:54;95838.47;;;18.61;47.80
56038;BME280;41907;47.848;9.000;2023-04-27T10:57:19;95845.97;;;18.68;46.53
56038;BME280;41907;47.848;9.000;2023-04-27T10:59:51;95835.44;;;17.73;48.75
56038;BME280;41907;47.848;9.000;2023-04-27T11:02:16;95841.22;;;17.60;48.37
56038;BME280;41907;47.848;9.000;2023-04-27T11:04:42;95844.13;;;17.51;48.68
56038;BME280;41907;47.848;9.000;2023-04-27T11:07:08;95833.81;;;16.94;50.81
56038;BME280;41907;47.848;9.000;2023-04-27T11:09:37;95832.69;;;17.10;49.94
56038;BME280;41907;47.848;9.000;2023-04-27T11:12:06;95836.69;;;17.95;49.26
56038;BME280;41907;47.848;9.000;2023-04-27T11:14:32;95835.72;;;18.57;47.71
56038;BME280;41907;47.848;9.000;2023-04-27T11:16:59;95829.66;;;18.83;47.06
56038;BME280;41907;47.848;9.000;2023-04-27T11:19:24;95838.31;;;18.35;45.38
56038;BME280;41907;47.848;9.000;2023-04-27T11:21:49;95828.13;;;17.42;47.37
56038;BME280;41907;47.848;9.000;2023-04-27T11:24:14;95836.66;;;17.44;46.77
56038;BME280;41907;47.848;9.000;2023-04-27T11:26:40;95834.44;;;17.50;49.46
56038;BME280;41907;47.848;9.000;2023-04-27T11:29:07;95839.72;;;18.29;49.03
56038;BME280;41907;47.848;9.000;2023-04-27T11:31:38;95835.22;;;18.71;47.18
56038;BME280;41907;47.848;9.000;2023-04-27T11:34:04;95837.06;;;18.48;48.90
56038;BME280;41907;47.848;9.000;2023-04-27T11:36:31;95840.47;;;18.83;48.62
56038;BME280;41907;47.848;9.000;2023-04-27T11:38:56;95841.06;;;19.15;47.95
56038;BME280;41907;47.848;9.000;2023-04-27T11:41:31;95838.47;;;19.22;46.94
56038;BME280;41907;47.848;9.000;2023-04-27T11:44:02;95833.50;;;19.24;48.28
56038;BME280;41907;47.848;9.000;2023-04-27T11:46:28;95838.44;;;19.42;47.24
56038;BME280;41907;47.848;9.000;2023-04-27T11:48:59;95837.09;;;19.55;45.23
56038;BME280;41907;47.848;9.000;2023-04-27T11:51:24;95838.63;;;19.52;45.07
56038;BME280;41907;47.848;9.000;2023-04-27T11:53:50;95843.34;;;19.36;46.33
56038;BME280;41907;47.848;9.000;2023-04-27T11:56:16;95839.31;;;19.04;44.64
56038;BME280;41907;47.848;9.000;2023-04-27T11:58:42;95837.19;;;18.93;46.39
56038;BME280;41907;47.848;9.000;2023-04-27T12:01:08;95837.22;;;18.97;47.93
56038;BME280;41907;47.848;9.000;2023-04-27T12:03:34;95843.03;;;19.18;48.22
56038;BME280;41907;47.848;9.000;2023-04-27T12:06:00;95844.72;;;19.26;48.20
56038;BME280;41907;47.848;9.000;2023-04-27T12:08:25;95834.41;;;19.32;45.80
56038;BME280;41907;47.848;9.000;2023-04-27T12:10:51;95837.19;;;19.16;44.79
56038;BME280;41907;47.848;9.000;2023-04-27T12:13:16;95831.50;;;19.21;45.21
56038;BME280;41907;47.848;9.000;2023-04-27T12:15:42;95835.34;;;19.20;46.83
56038;BME280;41907;47.848;9.000;2023-04-27T12:18:07;95822.72;;;19.28;47.91
56038;BME280;41907;47.848;9.000;2023-04-27T12:20:33;95819.53;;;19.45;43.60
56038;BME280;41907;47.848;9.000;2023-04-27T12:22:58;95819.66;;;19.29;46.50
56038;BME280;41907;47.848;9.000;2023-04-27T12:25:24;95815.88;;;19.80;44.98
56038;BME280;41907;47.848;9.000;2023-04-27T12:27:49;95817.25;;;19.47;43.14
56038;BME280;41907;47.848;9.000;2023-04-27T12:30:15;95819.13;;;19.43;45.09
56038;BME280;41907;47.848;9.000;2023-04-27T12:32:40;95822.13;;;19.38;47.18
56038;BME280;41907;47.848;9.000;2023-04-27T12:35:06;95816.59;;;19.77;45.80
56038;BME280;41907;47.848;9.000;2023-04-27T12:37:31;95810.53;;;19.87;42.54
56038;BME280;41907;47.848;9.000;2023-04-27T12:39:56;95816.59;;;19.54;42.91
56038;BME280;41907;47.848;9.000;2023-04-27T12:42:22;95824.25;;;19.71;43.57
56038;BME280;41907;47.848;9.000;2023-04-27T12:44:48;95812.41;;;20.09;44.45
56038;BME280;41907;47.848;9.000;2023-04-27T12:47:13;95800.94;;;20.49;43.78
56038;BME280;41907;47.848;9.000;2023-04-27T12:49:38;95809.97;;;19.74;42.33
56038;BME280;41907;47.848;9.000;2023-04-27T12:52:04;95801.75;;;19.44;43.04
56038;BME280;41907;47.848;9.000;2023-04-27T12:54:29;95802.31;;;18.66;43.42
56038;BME280;41907;47.848;9.000;2023-04-27T12:56:55;95793.63;;;18.56;45.03
56038;BME280;41907;47.848;9.000;2023-04-27T12:59:21;95794.09;;;18.81;47.33
56038;BME280;41907;47.848;9.000;2023-04-27T13:01:46;95798.63;;;18.97;44.61
56038;BME280;41907;47.848;9.000;2023-04-27T13:04:16;95794.53;;;19.06;46.92
56038;BME280;41907;47.848;9.000;2023-04-27T13:06:41;95792.13;;;19.47;45.65